Decoded Metar for KMWL (MINERAL WELLS in TX, USA) (IATA:MWL) | Meteo·Mobile Aviation Weather
aviador You're here:

KMWL Decoded Metar

MINERAL WELLS in TX, USA
Report Time2019-04-23 16:18:00
UTC Time2019-04-23 16:51:29
Flight Rules vfr VFR
Wind170° at 08 kt
W.Decomp.*RWY 17: 8.0 kt HW 0.8 kt LCW
RWY 13: 6.6 kt HW 4.5 kt RCW
Visibility9999 m
Phenomena:N/A
Clouds:Scattered 021 Hf
Scattered 044 Hf
Overcast 090 Hf
Expected CloudBase > 2,000 ft AGL from Temp-Dew spread
Ceiling9,000 ft
Temp22°C (ISA +9)
Dew Point17°C (73% RH)
AAT21.5°C
QNH1016 hPa
Density Alt2,123 ft
Elevation932 ft
Report Wrong Elevation
Raw Report
KMWL 231618Z AUTO 17008KT 10SM SCT021 SCT044 OVC090 22/17 A3001
RMK AO2 T02220172=

Extra information for KMWL:More info

Metar Taf Metar & Taf Last 4 Metars F.Rules Stats Wind Profile Meteogram Temp Stats Airport Information Weather charts Add Link Nearby VenuesMetar ALERT Operation Metar Decoded Social comments

AIRNAV info for KMWL